Terminal Aerodrome Forecast
Issued by NWS

Home | Current Version | Previous Version | Text Only | Print | Product List | Glossary On
Versions: 1 2 3 4 5 6 7 8 9 10 11 12 13 14 15 16 17 18 19 20 21 22 23 24 25 26 27 28
000
FTUS44 KFWD 251149
TAFFTW
TAF
KFTW 251149Z 2512/2612 07008KT P6SM SCT035 BKN060
      TEMPO 2512/2515 BKN035
     FM251500 08010KT P6SM SCT035 BKN050
     FM260300 11005KT P6SM BKN100=

USA.gov is the U.S. government's official web portal to all federal, state and local government web resources and services.